Time;durP1;ratioP1;P1;durP2;ratioP2;P2;SDS_P1;SDS_P2;PMS_P1;PMS_P2;Temp;Humidity;BMP_temperature;BMP_pressure;BME280_temperature;BME280_humidity;BME280_pressure;Samples;Min_cycle;Max_cycle;Signal;HPM_P1;HPM_P2
2022/01/30 00:00:05;;;;;;;12.52;4.10;;;6.40;1.00;;;;;;5002962;28;20304;-83
2022/01/30 00:02:32;;;;;;;9.70;4.13;;;6.40;1.00;;;;;;5001592;28;20227;-82
2022/01/30 00:04:59;;;;;;;11.43;4.40;;;6.30;1.00;;;;;;5003103;28;20226;-83
2022/01/30 00:07:28;;;;;;;24.92;5.13;;;6.30;1.00;;;;;;5000448;28;20230;-82
2022/01/30 00:09:55;;;;;;;18.38;4.10;;;6.30;1.00;;;;;;5000921;28;20222;-84
2022/01/30 00:12:30;;;;;;;12.13;3.97;;;6.20;1.00;;;;;;5006254;28;20593;-84
2022/01/30 00:14:58;;;;;;;14.02;3.80;;;6.10;1.00;;;;;;5003201;28;22804;-82
2022/01/30 00:17:32;;;;;;;16.98;5.88;;;6.10;1.00;;;;;;5023163;28;20238;-83
2022/01/30 00:20:02;;;;;;;10.23;4.63;;;6.20;1.00;;;;;;5001191;28;20236;-83
2022/01/30 00:22:43;;;;;;;12.40;3.53;;;6.20;1.00;;;;;;5011673;28;20223;-82
2022/01/30 00:25:15;;;;;;;12.70;4.22;;;6.20;1.00;;;;;;5004387;28;20238;-83
2022/01/30 00:27:48;;;;;;;19.40;4.90;;;6.20;1.00;;;;;;5005246;28;20222;-82
2022/01/30 00:30:17;;;;;;;15.77;4.72;;;6.20;1.00;;;;;;5002473;28;20245;-83
2022/01/30 00:32:44;;;;;;;18.52;5.80;;;6.30;1.00;;;;;;5001344;28;21556;-83
2022/01/30 00:35:12;;;;;;;17.98;4.68;;;6.30;1.00;;;;;;5001879;28;20230;-83
2022/01/30 00:37:42;;;;;;;11.38;3.35;;;6.40;1.00;;;;;;5005316;28;20242;-83
2022/01/30 00:40:10;;;;;;;12.18;3.85;;;6.50;1.00;;;;;;5002796;28;20223;-84
2022/01/30 00:42:37;;;;;;;17.67;4.80;;;6.60;1.00;;;;;;5000838;28;20353;-83
2022/01/30 00:45:05;;;;;;;19.45;4.13;;;6.60;1.00;;;;;;5006003;28;20731;-81
2022/01/30 00:47:31;;;;;;;21.45;5.07;;;6.70;1.00;;;;;;5007579;28;20246;-82
2022/01/30 00:49:59;;;;;;;14.73;4.43;;;6.70;1.00;;;;;;5012542;28;20296;-82
2022/01/30 00:52:26;;;;;;;11.90;3.88;;;6.70;1.00;;;;;;5005058;28;20261;-83
2022/01/30 00:54:54;;;;;;;10.43;3.75;;;6.70;1.00;;;;;;5007454;28;20232;-83
2022/01/30 00:57:21;;;;;;;10.35;3.38;;;6.70;1.00;;;;;;5013038;28;20251;-83
2022/01/30 00:59:48;;;;;;;16.70;4.90;;;6.60;1.00;;;;;;5012713;28;20223;-85
2022/01/30 01:02:15;;;;;;;11.25;3.80;;;6.60;1.00;;;;;;5010930;28;20243;-81
2022/01/30 01:04:42;;;;;;;9.43;3.03;;;6.50;1.00;;;;;;5025879;28;20233;-83
2022/01/30 01:07:15;;;;;;;14.07;3.65;;;6.50;1.00;;;;;;5010896;28;20289;-83
2022/01/30 01:09:43;;;;;;;11.38;3.85;;;6.40;1.00;;;;;;5004543;28;20227;-84
2022/01/30 01:12:39;;;;;;;13.45;3.85;;;6.40;1.00;;;;;;5019206;28;20282;-82
2022/01/30 01:21:01;;;;;;;9.02;3.75;;;6.40;1.00;;;;;;5033920;28;20219;-90
2022/01/30 01:23:29;;;;;;;14.60;4.13;;;6.50;1.00;;;;;;5036399;28;20223;-90
2022/01/30 01:25:58;;;;;;;12.38;4.70;;;6.60;1.00;;;;;;5016866;28;20296;-86
2022/01/30 01:28:27;;;;;;;10.68;3.63;;;6.60;1.00;;;;;;5012800;28;20277;-86
2022/01/30 01:30:55;;;;;;;12.32;4.90;;;6.60;1.00;;;;;;5008380;28;20354;-88
2022/01/30 01:33:24;;;;;;;15.32;4.95;;;6.70;1.00;;;;;;5031898;28;20309;-86
2022/01/30 01:35:51;;;;;;;13.27;3.53;;;6.70;1.00;;;;;;5027834;28;20268;-89
2022/01/30 01:38:21;;;;;;;14.60;3.78;;;6.80;1.00;;;;;;5031432;28;20223;-89
2022/01/30 01:40:51;;;;;;;18.00;4.63;;;6.80;1.00;;;;;;5028071;28;20231;-89
2022/01/30 01:43:19;;;;;;;10.43;3.40;;;6.90;1.00;;;;;;5004040;28;20223;-87
2022/01/30 01:45:49;;;;;;;12.43;3.90;;;6.90;1.00;;;;;;5004899;28;20233;-86
2022/01/30 01:48:16;;;;;;;9.35;3.50;;;6.90;1.00;;;;;;5007645;28;20714;-87
2022/01/30 01:50:50;;;;;;;15.93;3.78;;;6.90;1.00;;;;;;5038622;28;20322;-86
2022/01/30 01:53:20;;;;;;;14.00;4.38;;;6.90;1.00;;;;;;5005615;28;20227;-87
2022/01/30 01:55:47;;;;;;;15.18;3.72;;;6.90;1.00;;;;;;5006399;28;20238;-88
2022/01/30 01:58:14;;;;;;;15.52;3.47;;;6.90;1.00;;;;;;5021576;28;20301;-87
2022/01/30 02:00:41;;;;;;;15.50;3.78;;;6.90;1.00;;;;;;5009525;28;20307;-86
2022/01/30 02:03:10;;;;;;;15.80;4.78;;;6.90;1.00;;;;;;5000794;28;24292;-86
2022/01/30 02:05:39;;;;;;;12.88;5.18;;;6.90;1.00;;;;;;5007625;28;20224;-88
2022/01/30 02:08:28;;;;;;;9.60;4.78;;;6.90;1.00;;;;;;5045840;28;20231;-85
2022/01/30 02:11:00;;;;;;;10.00;4.13;;;6.90;1.00;;;;;;5001986;28;20320;-88
2022/01/30 02:24:51;;;;;;;13.65;4.32;;;6.50;1.00;;;;;;5006382;28;20314;-87
2022/01/30 02:27:22;;;;;;;16.88;3.70;;;6.40;1.00;;;;;;5004664;28;20228;-87
2022/01/30 02:29:49;;;;;;;15.48;4.55;;;6.40;1.00;;;;;;5007582;28;20230;-87
2022/01/30 02:32:16;;;;;;;15.07;4.55;;;6.40;1.00;;;;;;5003481;28;20222;-88
2022/01/30 02:34:43;;;;;;;10.77;3.47;;;6.50;1.00;;;;;;5014636;28;20345;-84
2022/01/30 02:37:12;;;;;;;16.85;4.20;;;6.60;1.00;;;;;;5022935;28;20235;-90
2022/01/30 02:39:39;;;;;;;13.32;4.18;;;6.70;1.00;;;;;;5027060;28;20318;-86
2022/01/30 02:42:08;;;;;;;13.35;3.75;;;6.80;1.00;;;;;;5001753;28;20224;-86
2022/01/30 02:44:40;;;;;;;10.25;3.55;;;6.80;1.00;;;;;;5042036;28;20318;-86
2022/01/30 02:47:21;;;;;;;11.18;3.47;;;6.80;1.00;;;;;;5003833;28;20231;-88
2022/01/30 02:50:08;;;;;;;15.13;4.13;;;6.80;1.00;;;;;;5004311;28;20228;-85
2022/01/30 02:52:37;;;;;;;12.07;4.00;;;6.80;1.00;;;;;;5001914;28;20231;-88
2022/01/30 02:55:05;;;;;;;9.57;3.80;;;6.80;1.00;;;;;;5003516;28;20225;-88
2022/01/30 02:57:34;;;;;;;8.80;3.88;;;6.80;1.00;;;;;;5007201;28;21446;-87
2022/01/30 03:00:01;;;;;;;10.52;3.80;;;6.80;1.00;;;;;;5005706;28;20219;-88
2022/01/30 03:02:28;;;;;;;12.52;3.95;;;6.80;1.00;;;;;;4999615;28;20227;-89
2022/01/30 03:04:55;;;;;;;9.93;3.65;;;6.80;1.00;;;;;;5007779;28;20235;-87
2022/01/30 03:07:22;;;;;;;12.10;3.70;;;6.70;1.00;;;;;;5032475;28;20240;-87
2022/01/30 03:09:48;;;;;;;12.65;4.35;;;6.80;1.00;;;;;;5002630;28;20215;-89
2022/01/30 03:12:15;;;;;;;10.25;2.80;;;6.80;1.00;;;;;;5004239;28;20231;-88
2022/01/30 03:14:44;;;;;;;11.65;4.90;;;6.80;1.00;;;;;;5006058;28;20617;-87
2022/01/30 03:17:11;;;;;;;12.77;3.67;;;6.80;1.00;;;;;;5007492;28;20234;-87
2022/01/30 03:19:38;;;;;;;12.85;4.45;;;6.80;1.00;;;;;;5004016;28;20284;-87
2022/01/30 03:22:05;;;;;;;9.30;3.50;;;6.70;1.00;;;;;;5005689;28;20231;-88
2022/01/30 03:24:36;;;;;;;8.38;3.05;;;6.70;1.00;;;;;;5008351;28;20241;-87
2022/01/30 03:27:03;;;;;;;9.98;3.50;;;6.60;1.00;;;;;;5008145;28;20227;-86
2022/01/30 03:29:31;;;;;;;9.77;3.15;;;6.60;1.00;;;;;;5011664;28;20313;-86
2022/01/30 03:32:00;;;;;;;18.55;3.97;;;6.60;1.00;;;;;;5042877;28;20287;-87
2022/01/30 03:34:27;;;;;;;11.57;3.70;;;6.60;1.00;;;;;;5034449;28;20219;-88
2022/01/30 03:36:54;;;;;;;16.23;5.25;;;6.50;1.00;;;;;;5032209;28;20241;-87
2022/01/30 03:39:21;;;;;;;15.10;4.13;;;6.50;1.00;;;;;;4998383;28;20973;-88
2022/01/30 03:41:48;;;;;;;13.90;4.10;;;6.40;1.00;;;;;;4999744;28;20234;-85
2022/01/30 03:44:16;;;;;;;9.63;3.95;;;6.40;1.00;;;;;;5004507;28;20663;-86
2022/01/30 03:46:43;;;;;;;13.55;4.75;;;6.40;1.00;;;;;;5004425;28;20342;-87
2022/01/30 03:49:11;;;;;;;17.50;4.45;;;6.40;1.00;;;;;;5003836;28;20749;-86
2022/01/30 03:51:38;;;;;;;10.02;3.90;;;6.40;1.00;;;;;;5007448;28;20255;-87
2022/01/30 03:54:05;;;;;;;10.82;3.95;;;6.50;1.00;;;;;;5000197;28;21117;-88
2022/01/30 03:56:32;;;;;;;16.30;5.03;;;6.40;1.00;;;;;;5005716;28;20242;-87
2022/01/30 03:58:59;;;;;;;9.88;4.25;;;6.40;1.00;;;;;;5010680;28;20234;-87
2022/01/30 04:01:26;;;;;;;13.82;4.15;;;6.40;1.00;;;;;;5005128;28;20222;-86
2022/01/30 04:03:52;;;;;;;12.20;4.13;;;6.40;1.00;;;;;;5001330;28;20225;-85
2022/01/30 04:06:22;;;;;;;11.15;3.40;;;6.30;1.00;;;;;;5005327;28;20207;-87
2022/01/30 04:08:49;;;;;;;11.85;3.95;;;6.30;1.00;;;;;;5011171;28;22822;-88
2022/01/30 04:11:17;;;;;;;12.98;4.18;;;6.30;1.00;;;;;;5027119;28;20239;-87
2022/01/30 04:13:44;;;;;;;7.85;3.38;;;6.20;1.00;;;;;;5009862;28;20317;-86
2022/01/30 04:16:11;;;;;;;11.95;3.67;;;6.20;1.00;;;;;;5005663;28;20239;-86
2022/01/30 04:18:38;;;;;;;12.73;3.63;;;6.10;1.00;;;;;;5009532;28;20237;-86
2022/01/30 04:21:05;;;;;;;15.65;4.30;;;6.00;1.00;;;;;;5008165;28;20357;-87
2022/01/30 04:23:34;;;;;;;12.95;3.78;;;6.00;1.00;;;;;;5006301;28;20320;-86
2022/01/30 04:26:01;;;;;;;9.93;4.10;;;5.80;1.00;;;;;;5001367;28;20230;-88
2022/01/30 04:28:28;;;;;;;8.95;2.60;;;5.70;1.00;;;;;;5003761;28;20441;-88
2022/01/30 04:30:55;;;;;;;12.43;4.47;;;5.70;1.00;;;;;;5002395;28;20273;-88
2022/01/30 04:33:23;;;;;;;11.27;3.80;;;5.70;1.00;;;;;;5010540;28;20294;-86
2022/01/30 04:35:51;;;;;;;13.27;3.67;;;5.70;1.00;;;;;;5043306;28;20236;-86
2022/01/30 04:38:27;;;;;;;11.20;3.40;;;5.70;1.00;;;;;;5007153;28;20234;-86
2022/01/30 04:52:21;;;;;;;9.57;2.72;;;5.90;1.00;;;;;;5009779;28;20235;-86
2022/01/30 04:57:51;;;;;;;10.00;3.75;;;6.00;1.00;;;;;;5020521;28;20311;-88
2022/01/30 05:00:51;;;;;;;8.18;3.08;;;6.00;1.00;;;;;;5017367;28;20313;-87
2022/01/30 05:03:37;;;;;;;9.10;3.72;;;6.10;1.00;;;;;;5008580;28;20305;-86
2022/01/30 05:06:07;;;;;;;10.50;3.60;;;6.00;1.00;;;;;;5011669;28;20227;-89
2022/01/30 05:08:34;;;;;;;14.27;4.00;;;6.10;1.00;;;;;;5013547;28;20231;-88
2022/01/30 05:11:05;;;;;;;11.27;3.30;;;6.10;1.00;;;;;;5003475;28;20215;-88
2022/01/30 05:13:38;;;;;;;10.63;2.92;;;6.10;1.00;;;;;;5006208;28;20278;-87
2022/01/30 05:16:06;;;;;;;12.18;3.33;;;6.00;1.00;;;;;;5005179;28;20231;-89
2022/01/30 05:18:33;;;;;;;11.90;3.42;;;6.00;1.00;;;;;;5004332;28;20241;-87
2022/01/30 05:21:00;;;;;;;12.27;3.40;;;5.90;1.00;;;;;;5006182;28;20254;-87
2022/01/30 05:23:28;;;;;;;14.10;3.90;;;5.80;1.00;;;;;;5014134;28;20227;-86
2022/01/30 05:25:55;;;;;;;15.13;4.47;;;5.70;1.00;;;;;;5040165;28;20229;-85
2022/01/30 05:28:24;;;;;;;12.80;4.60;;;5.60;1.00;;;;;;5031499;28;20227;-88
2022/01/30 05:30:55;;;;;;;10.85;3.72;;;5.60;1.00;;;;;;5035925;28;20707;-88
2022/01/30 05:33:22;;;;;;;14.50;4.03;;;5.60;1.00;;;;;;5028358;28;20243;-87
2022/01/30 05:35:49;;;;;;;14.13;4.68;;;5.70;1.00;;;;;;5004839;28;20242;-87
2022/01/30 05:38:17;;;;;;;8.82;3.60;;;5.80;1.00;;;;;;5005878;28;20241;-86
2022/01/30 05:40:44;;;;;;;13.38;3.47;;;5.80;1.00;;;;;;5022499;28;20229;-89
2022/01/30 05:43:11;;;;;;;18.52;4.40;;;5.90;1.00;;;;;;5016513;28;20222;-88
2022/01/30 05:45:42;;;;;;;12.20;4.13;;;5.90;1.00;;;;;;5026762;28;20253;-86
2022/01/30 05:48:15;;;;;;;10.38;3.45;;;6.00;1.00;;;;;;5008773;28;21009;-88
2022/01/30 05:50:43;;;;;;;7.68;4.35;;;6.00;1.00;;;;;;5020125;28;20900;-87
2022/01/30 05:53:10;;;;;;;10.27;3.83;;;6.00;1.00;;;;;;5044978;28;20226;-89
2022/01/30 05:55:37;;;;;;;10.35;3.25;;;6.00;1.00;;;;;;5009161;28;20235;-86
2022/01/30 05:58:04;;;;;;;13.60;3.67;;;5.90;1.00;;;;;;5009482;28;20242;-87
2022/01/30 06:00:31;;;;;;;12.45;3.67;;;5.80;1.00;;;;;;5007193;28;20227;-86
2022/01/30 06:02:58;;;;;;;12.75;3.65;;;5.70;1.00;;;;;;5007335;28;20715;-86
2022/01/30 06:05:27;;;;;;;11.45;5.50;;;5.70;1.00;;;;;;5010441;28;20305;-87
2022/01/30 06:07:55;;;;;;;17.10;4.13;;;5.70;1.00;;;;;;5005231;28;20226;-88
2022/01/30 06:10:24;;;;;;;13.85;4.95;;;5.80;1.00;;;;;;5008251;28;20660;-87
2022/01/30 06:12:51;;;;;;;15.15;4.03;;;5.90;1.00;;;;;;5040252;28;20223;-88
2022/01/30 06:15:19;;;;;;;20.60;5.57;;;5.90;1.00;;;;;;5008957;28;20734;-87
2022/01/30 06:17:46;;;;;;;10.68;4.13;;;6.00;1.00;;;;;;5007501;28;20977;-88
2022/01/30 06:20:13;;;;;;;14.93;3.80;;;6.00;1.00;;;;;;5006635;28;20302;-88
2022/01/30 06:22:42;;;;;;;15.45;4.93;;;6.00;1.00;;;;;;5009415;28;20226;-87
2022/01/30 06:25:11;;;;;;;14.07;5.63;;;6.00;1.00;;;;;;5007551;28;20262;-89
2022/01/30 06:27:38;;;;;;;12.70;4.70;;;6.10;1.00;;;;;;5007624;28;20373;-86
2022/01/30 06:30:07;;;;;;;14.73;5.10;;;6.00;1.00;;;;;;5010412;28;20273;-87
2022/01/30 06:32:34;;;;;;;12.80;4.88;;;6.10;1.00;;;;;;5011184;28;20222;-86
2022/01/30 06:35:01;;;;;;;18.52;3.53;;;6.10;1.00;;;;;;5007635;28;20234;-88
2022/01/30 06:37:28;;;;;;;11.35;4.70;;;6.00;1.00;;;;;;5008615;28;20243;-86
2022/01/30 06:39:57;;;;;;;17.60;4.80;;;6.10;1.00;;;;;;5004408;28;20235;-87
2022/01/30 06:42:24;;;;;;;9.13;3.35;;;6.10;1.00;;;;;;5015620;28;21048;-86
2022/01/30 06:44:52;;;;;;;11.15;4.20;;;6.10;1.00;;;;;;5006550;28;20244;-87
2022/01/30 06:47:18;;;;;;;14.93;4.57;;;6.10;1.00;;;;;;5006487;28;20231;-86
2022/01/30 06:49:47;;;;;;;18.15;4.20;;;6.00;1.00;;;;;;5008557;28;20844;-87
2022/01/30 06:52:15;;;;;;;12.77;5.00;;;6.10;1.00;;;;;;5009705;28;20733;-87
2022/01/30 06:54:42;;;;;;;17.70;3.40;;;6.10;1.00;;;;;;5014441;28;20228;-90
2022/01/30 06:57:10;;;;;;;12.20;3.75;;;6.10;1.00;;;;;;5023648;28;20238;-89
2022/01/30 06:59:37;;;;;;;15.90;4.30;;;6.20;1.00;;;;;;5010559;28;20714;-87
2022/01/30 07:02:06;;;;;;;13.68;3.90;;;6.20;1.00;;;;;;5002036;28;20289;-87
2022/01/30 07:04:33;;;;;;;14.65;3.80;;;6.20;1.00;;;;;;5006079;28;20365;-87
2022/01/30 07:07:03;;;;;;;18.08;3.80;;;6.30;1.00;;;;;;5004333;28;20232;-86
2022/01/30 07:09:30;;;;;;;13.63;4.10;;;6.30;1.00;;;;;;5025816;28;20291;-86
2022/01/30 07:11:57;;;;;;;12.88;3.88;;;6.40;1.00;;;;;;5006909;28;20227;-86
2022/01/30 07:14:26;;;;;;;13.02;4.03;;;6.40;1.00;;;;;;5008611;28;20247;-86
2022/01/30 07:16:53;;;;;;;10.43;4.13;;;6.50;1.00;;;;;;5017868;28;20234;-90
2022/01/30 07:19:20;;;;;;;10.10;3.13;;;6.50;1.00;;;;;;5022158;28;20298;-87
2022/01/30 07:21:48;;;;;;;9.57;4.20;;;6.60;1.00;;;;;;5027383;28;20214;-88
2022/01/30 07:24:15;;;;;;;16.08;4.88;;;6.60;1.00;;;;;;5033248;28;20215;-89
2022/01/30 07:26:45;;;;;;;13.02;3.97;;;6.60;1.00;;;;;;5031576;28;20314;-90
2022/01/30 07:29:12;;;;;;;14.55;4.32;;;6.60;1.00;;;;;;5013848;28;20230;-87
2022/01/30 07:31:40;;;;;;;11.05;4.22;;;6.60;1.00;;;;;;5009741;28;20246;-86
2022/01/30 07:34:07;;;;;;;11.90;4.18;;;6.60;1.00;;;;;;5005198;28;20238;-89
2022/01/30 07:36:36;;;;;;;10.00;3.67;;;6.70;1.00;;;;;;5012802;28;20233;-88
2022/01/30 07:39:06;;;;;;;14.43;4.70;;;6.70;1.00;;;;;;5009091;28;20258;-87
2022/01/30 07:41:33;;;;;;;13.32;5.28;;;6.70;1.00;;;;;;5008296;28;20235;-86
2022/01/30 07:44:01;;;;;;;14.68;4.90;;;6.70;1.00;;;;;;5005473;28;20234;-87
2022/01/30 07:46:28;;;;;;;15.73;4.45;;;6.70;1.00;;;;;;5009463;28;20279;-86
2022/01/30 07:48:59;;;;;;;11.45;3.88;;;6.70;1.00;;;;;;5015260;28;20369;-88
2022/01/30 07:51:26;;;;;;;13.30;3.83;;;6.70;1.00;;;;;;5008298;28;20234;-86
2022/01/30 07:53:53;;;;;;;15.55;4.10;;;6.70;1.00;;;;;;5003245;28;20291;-86
2022/01/30 07:56:20;;;;;;;11.40;3.65;;;6.70;1.00;;;;;;5039321;28;20300;-87
2022/01/30 07:58:47;;;;;;;10.38;3.85;;;6.70;1.00;;;;;;5000727;28;20218;-85
2022/01/30 08:01:14;;;;;;;9.68;3.70;;;6.70;1.00;;;;;;5030288;28;20230;-85
2022/01/30 08:03:41;;;;;;;15.10;3.88;;;6.70;1.00;;;;;;5006390;28;20227;-86
2022/01/30 08:06:09;;;;;;;9.07;4.20;;;6.70;1.00;;;;;;5001570;28;20231;-85
2022/01/30 08:08:36;;;;;;;10.70;4.55;;;6.70;1.00;;;;;;5021029;28;20261;-85
2022/01/30 08:11:03;;;;;;;7.10;3.50;;;6.70;1.00;;;;;;5004165;28;20282;-85
2022/01/30 08:13:31;;;;;;;11.80;4.35;;;6.70;1.00;;;;;;5001279;28;20306;-85
2022/01/30 08:15:58;;;;;;;11.93;3.97;;;6.70;1.00;;;;;;5007698;28;20242;-86
2022/01/30 08:18:25;;;;;;;18.00;4.07;;;6.60;1.00;;;;;;5002569;28;20356;-86
2022/01/30 08:20:54;;;;;;;12.25;3.83;;;6.50;1.00;;;;;;5002252;28;20233;-86
2022/01/30 08:23:24;;;;;;;13.40;4.60;;;6.50;1.00;;;;;;4998591;28;20234;-86
2022/01/30 08:25:51;;;;;;;11.43;4.05;;;6.50;1.00;;;;;;5005167;28;20230;-86
2022/01/30 08:28:18;;;;;;;13.52;4.30;;;6.50;1.00;;;;;;5001026;28;20230;-86
2022/01/30 08:30:47;;;;;;;9.52;3.10;;;6.60;1.00;;;;;;5010838;28;20294;-85
2022/01/30 08:33:15;;;;;;;17.92;5.07;;;6.60;1.00;;;;;;5005080;28;20227;-86
2022/01/30 08:35:43;;;;;;;11.60;4.47;;;6.60;1.00;;;;;;5005146;28;20789;-86
2022/01/30 08:38:10;;;;;;;14.07;4.97;;;6.70;1.00;;;;;;5002968;28;20249;-85
2022/01/30 08:40:39;;;;;;;12.95;3.92;;;6.70;1.00;;;;;;5036605;28;20766;-85
2022/01/30 08:43:06;;;;;;;12.82;4.97;;;6.70;1.00;;;;;;5009886;28;20223;-85
2022/01/30 08:45:33;;;;;;;14.25;5.10;;;6.80;1.00;;;;;;5010248;28;20753;-86
2022/01/30 08:48:00;;;;;;;11.68;4.35;;;6.80;1.00;;;;;;5014369;28;20234;-85
2022/01/30 08:50:27;;;;;;;12.25;4.45;;;6.80;1.00;;;;;;5021200;28;20286;-86
2022/01/30 08:52:54;;;;;;;11.82;4.15;;;6.80;1.00;;;;;;5029360;28;20234;-89
2022/01/30 08:55:21;;;;;;;11.68;4.15;;;6.90;1.00;;;;;;5029371;28;20273;-88
2022/01/30 08:58:00;;;;;;;13.40;3.55;;;6.80;1.00;;;;;;5031643;28;20266;-90
2022/01/30 09:00:33;;;;;;;16.33;3.70;;;6.80;1.00;;;;;;5021855;28;20222;-88
2022/01/30 09:03:04;;;;;;;8.95;3.25;;;6.90;1.00;;;;;;5016536;28;20222;-88
2022/01/30 09:05:32;;;;;;;17.80;5.40;;;6.90;1.00;;;;;;5007811;28;20320;-87
2022/01/30 09:08:07;;;;;;;12.55;5.13;;;6.90;1.00;;;;;;5007395;28;20241;-86
2022/01/30 09:10:37;;;;;;;13.52;3.60;;;6.90;1.00;;;;;;5014760;28;20292;-88
2022/01/30 09:13:08;;;;;;;14.93;4.90;;;7.00;1.00;;;;;;5013266;28;20262;-90
2022/01/30 09:15:39;;;;;;;12.43;3.20;;;7.10;1.00;;;;;;5025107;28;20258;-90
2022/01/30 09:18:09;;;;;;;12.55;4.63;;;7.10;1.00;;;;;;5011358;28;20421;-88
2022/01/30 09:20:37;;;;;;;14.27;6.45;;;7.10;1.00;;;;;;5013116;28;20231;-88
2022/01/30 09:23:20;;;;;;;16.75;4.05;;;7.10;1.00;;;;;;5010913;28;20230;-88
2022/01/30 09:26:44;;;;;;;9.70;3.85;;;7.20;1.00;;;;;;5007717;28;20227;-89
2022/01/30 09:29:35;;;;;;;;;;;;;;;;;;;;;
2022/01/30 09:32:40;;;;;;;12.52;4.60;;;7.30;1.00;;;;;;5014721;28;20233;-88
2022/01/30 09:35:43;;;;;;;10.05;4.00;;;7.50;1.00;;;;;;5014138;28;20211;-87
2022/01/30 09:38:30;;;;;;;11.32;4.85;;;7.40;1.00;;;;;;5032209;28;20289;-88
2022/01/30 09:41:30;;;;;;;15.40;5.53;;;7.50;1.00;;;;;;5036803;28;20246;-90
2022/01/30 09:44:13;;;;;;;10.57;3.95;;;7.40;1.00;;;;;;5029249;28;20679;-87
2022/01/30 09:47:14;;;;;;;12.45;3.97;;;7.40;1.00;;;;;;5010497;28;20305;-89
2022/01/30 09:49:54;;;;;;;17.13;4.53;;;7.40;1.00;;;;;;5011636;28;20324;-88
2022/01/30 09:52:29;;;;;;;16.60;4.45;;;7.40;1.00;;;;;;5012984;28;20219;-90
2022/01/30 09:55:05;;;;;;;16.15;4.60;;;7.40;1.00;;;;;;5040400;28;20266;-88
2022/01/30 09:57:47;;;;;;;17.00;4.88;;;7.30;1.00;;;;;;5006616;28;20301;-89
2022/01/30 10:00:33;;;;;;;11.10;3.90;;;7.30;1.00;;;;;;5041112;28;20957;-86
2022/01/30 10:03:09;;;;;;;14.60;4.95;;;7.20;1.00;;;;;;5042570;28;20218;-88
2022/01/30 10:05:39;;;;;;;11.80;3.85;;;7.20;1.00;;;;;;5010347;28;20242;-87
2022/01/30 10:12:36;;;;;;;16.73;4.97;;;7.20;1.00;;;;;;4983375;28;20226;-88
2022/01/30 10:15:05;;;;;;;15.27;5.25;;;7.20;1.00;;;;;;4984157;28;20215;-86
2022/01/30 10:17:35;;;;;;;12.02;4.80;;;7.20;1.00;;;;;;5037537;28;20246;-86
2022/01/30 10:20:09;;;;;;;16.60;4.95;;;7.20;1.00;;;;;;5030966;28;20227;-87
2022/01/30 10:52:52;;;;;;;20.73;5.35;;;7.60;1.00;;;;;;4908069;28;21128;-87
2022/01/30 10:55:46;;;;;;;17.25;6.38;;;7.70;1.00;;;;;;5006300;28;20223;-89
2022/01/30 11:13:14;;;;;;;22.20;6.07;;;7.40;1.00;;;;;;5011337;28;20220;-87
2022/01/30 11:47:26;;;;;;;19.90;5.90;;;7.70;1.00;;;;;;4927502;28;20237;-87
2022/01/30 11:50:14;;;;;;;15.93;5.47;;;7.90;1.00;;;;;;4987296;28;20234;-88
2022/01/30 11:52:54;;;;;;;16.85;5.35;;;7.90;1.00;;;;;;5009694;28;20222;-86
2022/01/30 11:55:50;;;;;;;15.43;5.53;;;7.90;1.00;;;;;;5022841;28;20223;-88
2022/01/30 11:58:55;;;;;;;20.15;6.90;;;8.00;1.00;;;;;;5014633;28;20254;-88
2022/01/30 12:01:37;;;;;;;16.63;6.50;;;8.00;1.00;;;;;;5047428;28;20221;-93
2022/01/30 12:04:17;;;;;;;20.83;6.18;;;8.00;1.00;;;;;;5033718;28;20233;-92
2022/01/30 12:07:44;;;;;;;17.75;5.93;;;7.90;1.00;;;;;;5043442;28;20583;-88
2022/01/30 12:15:52;;;;;;;;;;;;;;;;;;;;;
2022/01/30 12:26:58;;;;;;;23.58;6.35;;;7.80;1.00;;;;;;4832194;29;20244;-84
2022/01/30 12:29:55;;;;;;;21.48;5.85;;;7.90;1.00;;;;;;4914410;28;20237;-86
2022/01/30 12:32:33;;;;;;;20.13;7.15;;;7.80;1.00;;;;;;4942414;28;20236;-86
2022/01/30 12:35:05;;;;;;;22.27;6.55;;;7.80;1.00;;;;;;4985641;28;20326;-83
2022/01/30 12:37:34;;;;;;;17.13;6.35;;;7.70;1.00;;;;;;5019294;28;20242;-84
2022/01/30 12:40:16;;;;;;;18.10;6.75;;;7.80;1.00;;;;;;5018086;28;20221;-84
2022/01/30 12:42:43;;;;;;;18.83;6.30;;;7.80;1.00;;;;;;5019194;28;20335;-83
2022/01/30 12:45:11;;;;;;;16.77;5.57;;;7.80;1.00;;;;;;5018020;28;20758;-83
2022/01/30 12:47:47;;;;;;;23.05;7.10;;;7.80;1.00;;;;;;5026651;28;20280;-84
2022/01/30 12:50:16;;;;;;;19.63;6.82;;;7.80;1.00;;;;;;5015365;28;20242;-85
2022/01/30 12:52:52;;;;;;;17.20;6.28;;;7.90;1.00;;;;;;5035229;28;20231;-84
2022/01/30 12:55:25;;;;;;;17.17;6.55;;;7.90;1.00;;;;;;5024780;28;20693;-84
2022/01/30 12:57:56;;;;;;;19.15;6.78;;;7.90;1.00;;;;;;5026760;28;20246;-84
2022/01/30 13:00:27;;;;;;;26.67;6.97;;;7.90;1.00;;;;;;5013858;28;20215;-84
2022/01/30 13:02:58;;;;;;;23.45;7.93;;;7.90;1.00;;;;;;5005477;28;20344;-85
2022/01/30 13:05:34;;;;;;;22.98;6.78;;;7.90;1.00;;;;;;5026430;28;20325;-84
2022/01/30 13:08:03;;;;;;;16.23;6.20;;;8.00;1.00;;;;;;5028220;28;21107;-84
2022/01/30 13:10:48;;;;;;;19.35;6.53;;;8.00;1.00;;;;;;5024677;28;21473;-85
2022/01/30 13:13:17;;;;;;;21.52;6.70;;;8.20;1.00;;;;;;5024595;28;21137;-84
2022/01/30 13:16:00;;;;;;;17.38;6.28;;;8.50;1.00;;;;;;4999163;28;20238;-84
2022/01/30 13:18:47;;;;;;;20.30;6.68;;;8.60;1.00;;;;;;5005727;28;20263;-84
2022/01/30 13:21:14;;;;;;;16.90;5.43;;;8.50;1.00;;;;;;5027610;28;20223;-84
2022/01/30 13:23:48;;;;;;;18.85;6.70;;;8.40;1.00;;;;;;5011620;28;20236;-83
2022/01/30 13:26:36;;;;;;;13.93;5.97;;;8.30;1.00;;;;;;5002166;28;20228;-87
2022/01/30 13:29:11;;;;;;;12.90;5.97;;;8.10;1.00;;;;;;5032384;28;21123;-88
2022/01/30 13:31:39;;;;;;;25.40;6.40;;;8.20;1.00;;;;;;5028830;28;21943;-85
2022/01/30 13:34:15;;;;;;;16.02;6.55;;;8.30;1.00;;;;;;5029023;28;20684;-86
2022/01/30 13:36:53;;;;;;;19.33;5.70;;;8.20;1.00;;;;;;5048610;28;20247;-86
2022/01/30 13:39:27;;;;;;;22.40;6.15;;;8.40;1.00;;;;;;5010668;28;20317;-86
2022/01/30 13:42:15;;;;;;;22.77;6.25;;;8.80;1.00;;;;;;5018165;28;20219;-87
2022/01/30 13:44:51;;;;;;;18.90;6.80;;;8.70;1.00;;;;;;5016699;28;20796;-84
2022/01/30 13:47:21;;;;;;;17.27;6.07;;;8.60;1.00;;;;;;5005327;28;21266;-86
2022/01/30 13:49:50;;;;;;;24.52;7.35;;;8.40;1.00;;;;;;5017850;28;21507;-88
2022/01/30 13:52:19;;;;;;;17.92;6.65;;;8.20;1.00;;;;;;5013325;28;20234;-87
2022/01/30 13:55:00;;;;;;;22.67;6.40;;;8.10;1.00;;;;;;5020001;28;21016;-87
2022/01/30 13:57:34;;;;;;;17.27;6.57;;;8.00;1.00;;;;;;5011269;28;20294;-87
2022/01/30 14:00:07;;;;;;;17.13;5.47;;;8.00;1.00;;;;;;5016845;28;20214;-88
2022/01/30 14:02:36;;;;;;;18.98;6.57;;;7.90;1.00;;;;;;5018522;28;20326;-87
2022/01/30 14:05:24;;;;;;;20.50;5.80;;;7.90;1.00;;;;;;5007206;28;20227;-87
2022/01/30 14:07:51;;;;;;;15.13;5.75;;;7.80;1.00;;;;;;5022197;28;20269;-88
2022/01/30 14:10:21;;;;;;;21.00;6.65;;;7.70;1.00;;;;;;5026683;28;20231;-87
2022/01/30 14:12:51;;;;;;;16.50;6.85;;;7.70;1.00;;;;;;5031478;28;20230;-87
2022/01/30 14:15:20;;;;;;;16.90;5.40;;;7.70;1.00;;;;;;5048030;28;20219;-88
2022/01/30 14:18:23;;;;;;;18.73;7.50;;;7.80;1.00;;;;;;5053147;28;20233;-86
2022/01/30 14:20:58;;;;;;;15.98;5.72;;;7.70;1.00;;;;;;5005898;28;20306;-87
2022/01/30 14:23:25;;;;;;;22.05;6.80;;;7.70;1.00;;;;;;5017551;28;20227;-87
2022/01/30 14:25:53;;;;;;;21.67;5.38;;;7.60;1.00;;;;;;4995420;28;20660;-85
2022/01/30 14:28:27;;;;;;;23.58;6.60;;;7.60;1.00;;;;;;5012516;28;20358;-84
2022/01/30 14:30:55;;;;;;;28.38;7.65;;;7.50;1.00;;;;;;4990821;28;20254;-85
2022/01/30 14:33:22;;;;;;;21.63;6.45;;;7.50;1.00;;;;;;5015929;28;20226;-84
2022/01/30 14:35:49;;;;;;;23.80;6.20;;;7.50;1.00;;;;;;5016318;28;20218;-84
2022/01/30 14:38:16;;;;;;;21.35;7.40;;;7.30;1.00;;;;;;4996549;28;20480;-85
2022/01/30 14:40:43;;;;;;;19.10;6.72;;;7.30;1.00;;;;;;5019055;28;20230;-85
2022/01/30 14:43:11;;;;;;;17.52;5.35;;;7.30;1.00;;;;;;4997069;28;20232;-83
2022/01/30 14:45:41;;;;;;;22.55;7.05;;;7.30;1.00;;;;;;4998866;28;20226;-85
2022/01/30 14:48:08;;;;;;;18.98;6.65;;;7.30;1.00;;;;;;5001733;28;21128;-84
2022/01/30 14:50:36;;;;;;;16.50;7.13;;;7.40;1.00;;;;;;5013247;28;20804;-86
2022/01/30 14:53:04;;;;;;;24.02;6.57;;;7.30;1.00;;;;;;5011699;28;20238;-87
2022/01/30 14:55:31;;;;;;;19.17;5.18;;;7.40;1.00;;;;;;5012876;28;20314;-84
2022/01/30 14:57:58;;;;;;;21.52;6.03;;;7.40;1.00;;;;;;4994824;28;20243;-85
2022/01/30 15:00:26;;;;;;;19.42;6.32;;;7.30;1.00;;;;;;5015462;28;20225;-83
2022/01/30 15:02:54;;;;;;;22.63;7.45;;;7.30;1.00;;;;;;5015779;28;20223;-84
2022/01/30 15:05:21;;;;;;;21.25;5.50;;;7.20;1.00;;;;;;5018373;28;21334;-84
2022/01/30 15:07:48;;;;;;;15.65;7.45;;;7.20;1.00;;;;;;5014096;28;20221;-83
2022/01/30 15:10:16;;;;;;;20.00;6.25;;;7.20;1.00;;;;;;5018967;28;20229;-84
2022/01/30 15:12:43;;;;;;;17.63;5.80;;;7.20;1.00;;;;;;5026695;28;20231;-84
2022/01/30 15:15:12;;;;;;;19.00;6.03;;;7.20;1.00;;;;;;5014439;28;20370;-85
2022/01/30 15:17:40;;;;;;;18.02;6.82;;;7.10;1.00;;;;;;5016505;28;20219;-83
2022/01/30 15:20:12;;;;;;;14.60;5.60;;;7.10;1.00;;;;;;5011335;28;20238;-83
2022/01/30 15:22:39;;;;;;;17.70;5.00;;;7.20;1.00;;;;;;5012765;28;20242;-84
2022/01/30 15:25:12;;;;;;;21.35;6.65;;;7.10;1.00;;;;;;4994260;28;21112;-87
2022/01/30 15:27:42;;;;;;;19.90;6.18;;;7.00;1.00;;;;;;4995778;28;20260;-87